Time;durP1;ratioP1;P1;durP2;ratioP2;P2;SDS_P1;SDS_P2;PMS_P1;PMS_P2;Temp;Humidity;BMP_temperature;BMP_pressure;BME280_temperature;BME280_humidity;BME280_pressure;Samples;Min_cycle;Max_cycle;Signal;HPM_P1;HPM_P2
2021/01/08 00:00:15;;;;;;;20.75;9.38;;;1.60;99.90;;;;;;4995170;28;20384;-59
2021/01/08 00:02:40;;;;;;;19.08;8.52;;;1.60;99.90;;;;;;4994971;28;20034;-59
2021/01/08 00:05:08;;;;;;;26.85;10.25;;;1.70;99.90;;;;;;4995149;28;20049;-58
2021/01/08 00:07:35;;;;;;;20.50;8.75;;;1.70;99.90;;;;;;4994848;28;20089;-59
2021/01/08 00:10:03;;;;;;;22.48;9.05;;;1.70;99.90;;;;;;4994633;28;20042;-58
2021/01/08 00:12:31;;;;;;;21.73;8.07;;;1.70;99.90;;;;;;4994582;28;20085;-58
2021/01/08 00:14:57;;;;;;;18.58;8.43;;;1.70;99.90;;;;;;4994719;28;20041;-59
2021/01/08 00:17:27;;;;;;;22.95;9.50;;;1.70;99.90;;;;;;4994786;28;20077;-58
2021/01/08 00:19:53;;;;;;;18.45;7.60;;;1.70;99.90;;;;;;4993187;28;20026;-58
2021/01/08 00:22:20;;;;;;;15.45;7.57;;;1.80;99.90;;;;;;4994737;28;20110;-59
2021/01/08 00:24:47;;;;;;;17.75;7.90;;;1.80;99.90;;;;;;4994265;28;20089;-59
2021/01/08 00:27:13;;;;;;;19.52;8.10;;;1.80;99.90;;;;;;4994322;28;20038;-58
2021/01/08 00:29:40;;;;;;;18.60;7.95;;;1.70;99.90;;;;;;4994606;28;20110;-59
2021/01/08 00:32:08;;;;;;;18.30;8.50;;;1.80;99.90;;;;;;4994088;28;20085;-59
2021/01/08 00:34:35;;;;;;;16.92;7.07;;;1.80;99.90;;;;;;4994188;28;20027;-57
2021/01/08 00:37:00;;;;;;;22.08;8.60;;;1.80;99.90;;;;;;4994069;28;20100;-56
2021/01/08 00:39:26;;;;;;;15.93;7.55;;;1.90;99.90;;;;;;4994121;28;20030;-59
2021/01/08 00:41:52;;;;;;;17.60;7.03;;;1.90;99.90;;;;;;4994235;28;20038;-58
2021/01/08 00:44:18;;;;;;;20.40;8.30;;;1.90;99.90;;;;;;4994028;28;20057;-56
2021/01/08 00:46:47;;;;;;;15.45;8.00;;;1.90;99.90;;;;;;4993844;28;20042;-58
2021/01/08 00:49:14;;;;;;;15.43;7.47;;;1.80;99.90;;;;;;4994240;28;20034;-59
2021/01/08 00:51:41;;;;;;;16.13;8.25;;;1.80;99.90;;;;;;4993951;28;20034;-59
2021/01/08 00:54:07;;;;;;;16.42;7.75;;;1.90;99.90;;;;;;4993109;28;20038;-59
2021/01/08 00:56:34;;;;;;;14.57;6.78;;;1.90;99.90;;;;;;4994137;28;20116;-58
2021/01/08 00:59:00;;;;;;;17.60;7.68;;;1.90;99.90;;;;;;4993720;28;20042;-59
2021/01/08 01:01:26;;;;;;;13.30;6.28;;;2.00;99.90;;;;;;4993727;28;20033;-59
2021/01/08 01:03:52;;;;;;;21.35;7.55;;;2.00;99.90;;;;;;4993517;28;20387;-58
2021/01/08 01:06:26;;;;;;;15.85;7.68;;;1.90;99.90;;;;;;4993640;28;20466;-57
2021/01/08 01:08:53;;;;;;;17.90;7.45;;;1.90;99.90;;;;;;4993431;28;20080;-59
2021/01/08 01:11:20;;;;;;;15.57;6.88;;;1.90;99.90;;;;;;4992361;28;20053;-59
2021/01/08 01:13:48;;;;;;;14.85;7.05;;;1.90;99.90;;;;;;4993500;28;20038;-57
2021/01/08 01:16:16;;;;;;;17.98;7.68;;;1.90;99.90;;;;;;4993594;28;20081;-58
2021/01/08 01:18:43;;;;;;;11.90;5.95;;;2.00;99.90;;;;;;4993418;28;20045;-57
2021/01/08 01:21:11;;;;;;;16.00;6.88;;;1.90;99.90;;;;;;4993580;28;20042;-58
2021/01/08 01:23:37;;;;;;;12.10;5.57;;;1.90;99.90;;;;;;4993228;28;20030;-59
2021/01/08 01:26:04;;;;;;;14.95;6.68;;;1.90;99.90;;;;;;4993330;28;20034;-58
2021/01/08 01:28:31;;;;;;;16.65;6.78;;;1.90;99.90;;;;;;4993093;28;20125;-57
2021/01/08 01:30:57;;;;;;;17.35;7.03;;;1.90;99.90;;;;;;4993106;28;20214;-59
2021/01/08 01:33:23;;;;;;;20.38;8.57;;;1.80;99.90;;;;;;4993436;28;20058;-59
2021/01/08 01:35:50;;;;;;;22.92;9.13;;;1.70;99.90;;;;;;4993212;28;20095;-58
2021/01/08 01:38:16;;;;;;;22.17;8.88;;;1.60;99.90;;;;;;4993273;28;20045;-58
2021/01/08 01:40:42;;;;;;;18.17;8.63;;;1.60;99.90;;;;;;4993381;28;20026;-57
2021/01/08 01:43:08;;;;;;;18.58;8.02;;;1.50;99.90;;;;;;4993142;28;20038;-58
2021/01/08 01:45:33;;;;;;;17.35;7.60;;;1.60;99.90;;;;;;4993330;28;20022;-58
2021/01/08 01:48:00;;;;;;;16.38;7.57;;;1.60;99.90;;;;;;4993065;28;20041;-58
2021/01/08 01:50:26;;;;;;;15.60;7.20;;;1.60;99.90;;;;;;4993240;28;20060;-58
2021/01/08 01:52:54;;;;;;;13.52;7.32;;;1.60;99.90;;;;;;4975433;28;20053;-59
2021/01/08 01:55:22;;;;;;;17.08;7.00;;;1.60;99.90;;;;;;4993120;28;20065;-59
2021/01/08 01:57:50;;;;;;;13.05;6.07;;;1.70;99.90;;;;;;4992850;28;20096;-58
2021/01/08 02:00:17;;;;;;;19.92;7.25;;;1.70;99.90;;;;;;4991573;28;20022;-58
2021/01/08 02:02:47;;;;;;;15.52;6.65;;;1.70;99.90;;;;;;4992037;28;20038;-57
2021/01/08 02:05:15;;;;;;;16.92;7.50;;;1.80;99.90;;;;;;4989978;28;20121;-58
2021/01/08 02:08:12;;;;;;;14.45;6.18;;;1.80;99.90;;;;;;4992452;28;20034;-58
2021/01/08 02:11:06;;;;;;;16.08;6.22;;;1.70;99.90;;;;;;4991397;28;20041;-58
2021/01/08 02:14:10;;;;;;;16.30;6.30;;;1.70;99.90;;;;;;4992475;28;20038;-58
2021/01/08 02:16:39;;;;;;;13.05;6.55;;;1.70;99.90;;;;;;4992761;28;20041;-58
2021/01/08 02:19:12;;;;;;;17.35;6.90;;;1.60;99.90;;;;;;4991659;28;20030;-58
2021/01/08 02:21:54;;;;;;;14.90;6.80;;;1.60;99.90;;;;;;4991437;28;20064;-58
2021/01/08 02:24:44;;;;;;;20.73;7.90;;;1.60;99.90;;;;;;4992559;28;20038;-55
2021/01/08 02:27:10;;;;;;;17.45;7.68;;;1.60;99.90;;;;;;4991281;28;20050;-56
2021/01/08 02:29:37;;;;;;;17.02;7.93;;;1.50;99.90;;;;;;4991636;28;20029;-57
2021/01/08 02:32:03;;;;;;;18.50;7.97;;;1.50;99.90;;;;;;4991464;28;20031;-58
2021/01/08 02:34:30;;;;;;;19.08;8.57;;;1.30;99.90;;;;;;4992796;28;20143;-58
2021/01/08 02:36:57;;;;;;;21.63;8.55;;;1.30;99.90;;;;;;4992282;28;20035;-57
2021/01/08 02:39:24;;;;;;;16.58;8.60;;;1.20;99.90;;;;;;4991522;28;20066;-58
2021/01/08 02:41:53;;;;;;;18.92;8.48;;;1.30;99.90;;;;;;4992769;28;20030;-57
2021/01/08 02:44:21;;;;;;;20.05;8.27;;;1.20;99.90;;;;;;4992412;28;20037;-57
2021/01/08 02:46:47;;;;;;;16.38;7.82;;;1.20;99.90;;;;;;4991238;28;20054;-58
2021/01/08 02:49:13;;;;;;;23.13;8.88;;;1.20;99.90;;;;;;4992293;28;20034;-58
2021/01/08 02:51:41;;;;;;;21.40;8.20;;;1.20;99.90;;;;;;4992262;28;20045;-57
2021/01/08 02:54:08;;;;;;;23.05;8.70;;;1.10;99.90;;;;;;4992405;28;20042;-58
2021/01/08 02:56:55;;;;;;;20.60;8.23;;;1.20;99.90;;;;;;4991232;28;20088;-58
2021/01/08 02:59:23;;;;;;;23.38;8.93;;;1.20;99.90;;;;;;4992214;28;20125;-59
2021/01/08 03:01:49;;;;;;;22.30;9.68;;;1.30;99.90;;;;;;4991088;28;20064;-58
2021/01/08 03:04:17;;;;;;;19.40;8.00;;;1.30;99.90;;;;;;4992137;28;20121;-58
2021/01/08 03:06:45;;;;;;;20.67;8.93;;;1.40;99.90;;;;;;4992404;28;20049;-57
2021/01/08 03:09:11;;;;;;;22.73;8.32;;;1.50;99.90;;;;;;4990814;28;20023;-59
2021/01/08 03:11:38;;;;;;;21.45;8.65;;;1.50;99.90;;;;;;4992176;28;20034;-59
2021/01/08 03:14:05;;;;;;;19.45;9.27;;;1.50;99.90;;;;;;4992063;28;20034;-58
2021/01/08 03:16:31;;;;;;;18.98;8.55;;;1.50;99.90;;;;;;4991396;28;20038;-55
2021/01/08 03:18:58;;;;;;;19.02;8.48;;;1.40;99.90;;;;;;4995378;28;20053;-56
2021/01/08 03:21:24;;;;;;;14.82;7.13;;;1.60;99.90;;;;;;4995766;28;20081;-58
2021/01/08 03:23:50;;;;;;;12.50;5.97;;;1.70;99.90;;;;;;4995802;28;20101;-58
2021/01/08 03:26:16;;;;;;;14.27;6.63;;;1.70;99.90;;;;;;4995561;28;20045;-58
2021/01/08 03:28:42;;;;;;;15.05;6.32;;;1.70;99.90;;;;;;4995317;28;20051;-59
2021/01/08 03:31:07;;;;;;;18.05;5.88;;;1.60;99.90;;;;;;4995454;28;20042;-59
2021/01/08 03:33:33;;;;;;;13.02;6.20;;;1.60;99.90;;;;;;4995372;28;20034;-57
2021/01/08 03:35:59;;;;;;;15.25;6.93;;;1.60;99.90;;;;;;4995209;28;20030;-56
2021/01/08 03:38:25;;;;;;;15.07;6.15;;;1.60;99.90;;;;;;4995193;28;20081;-58
2021/01/08 03:40:51;;;;;;;15.75;6.38;;;1.60;99.90;;;;;;4995176;28;20052;-58
2021/01/08 03:43:17;;;;;;;15.40;6.18;;;1.50;99.90;;;;;;4995255;28;20052;-57
2021/01/08 03:45:43;;;;;;;16.02;6.57;;;1.50;99.90;;;;;;4995394;28;20033;-57
2021/01/08 03:48:09;;;;;;;16.45;6.45;;;1.50;99.90;;;;;;4995168;28;20030;-56
2021/01/08 03:50:35;;;;;;;16.60;6.78;;;1.40;99.90;;;;;;4995075;28;20027;-57
2021/01/08 03:53:01;;;;;;;19.63;6.55;;;1.40;99.90;;;;;;4994857;28;20037;-57
2021/01/08 03:55:27;;;;;;;18.15;6.82;;;1.40;99.90;;;;;;4994912;28;20034;-58
2021/01/08 03:57:53;;;;;;;21.90;7.07;;;1.40;99.90;;;;;;4995214;28;20060;-58
2021/01/08 04:00:19;;;;;;;13.63;6.07;;;1.40;99.90;;;;;;4994801;28;20124;-57
2021/01/08 04:02:45;;;;;;;15.60;7.53;;;1.40;99.90;;;;;;4995019;28;20034;-58
2021/01/08 04:05:12;;;;;;;18.73;7.40;;;1.40;99.90;;;;;;4994628;28;20035;-58
2021/01/08 04:07:37;;;;;;;16.45;7.45;;;1.30;99.90;;;;;;4994526;28;20109;-56
2021/01/08 04:10:04;;;;;;;14.02;6.75;;;1.40;99.90;;;;;;4994856;28;20030;-58
2021/01/08 04:12:30;;;;;;;18.42;8.27;;;1.40;99.90;;;;;;4994547;28;20073;-56
2021/01/08 04:14:56;;;;;;;16.17;7.50;;;1.40;99.90;;;;;;4994880;28;20054;-55
2021/01/08 04:17:22;;;;;;;18.33;7.93;;;1.50;99.90;;;;;;4994734;28;20030;-58
2021/01/08 04:19:48;;;;;;;19.60;7.47;;;1.40;99.90;;;;;;4994787;28;20423;-58
2021/01/08 04:22:14;;;;;;;15.85;7.57;;;1.40;99.90;;;;;;4994339;28;20034;-59
2021/01/08 04:24:40;;;;;;;17.00;7.80;;;1.40;99.90;;;;;;4994300;28;20026;-59
2021/01/08 04:27:05;;;;;;;18.80;7.60;;;1.40;99.90;;;;;;4994116;28;20034;-58
2021/01/08 04:29:31;;;;;;;18.70;7.32;;;1.50;99.90;;;;;;4993257;28;20026;-58
2021/01/08 04:31:57;;;;;;;17.45;7.72;;;1.50;99.90;;;;;;4994560;28;20030;-59
2021/01/08 04:34:23;;;;;;;17.25;7.72;;;1.60;99.90;;;;;;4994695;28;20113;-59
2021/01/08 04:36:49;;;;;;;16.45;7.38;;;1.60;99.90;;;;;;4994359;28;20023;-58
2021/01/08 04:39:15;;;;;;;19.02;7.80;;;1.60;99.90;;;;;;4994182;28;20415;-59
2021/01/08 04:41:41;;;;;;;17.45;7.82;;;1.60;99.90;;;;;;4994046;28;20027;-58
2021/01/08 04:44:08;;;;;;;15.48;6.72;;;1.60;99.90;;;;;;4992962;28;20027;-58
2021/01/08 04:46:35;;;;;;;16.80;7.72;;;1.60;99.90;;;;;;4992886;28;20041;-58
2021/01/08 04:49:05;;;;;;;17.35;7.38;;;1.70;99.90;;;;;;4993538;28;20113;-55
2021/01/08 04:51:37;;;;;;;16.55;6.32;;;1.70;99.90;;;;;;4994083;28;20045;-58
2021/01/08 04:54:04;;;;;;;17.52;7.03;;;1.70;99.90;;;;;;4991381;28;20031;-58
2021/01/08 04:56:53;;;;;;;16.48;5.70;;;1.70;99.90;;;;;;4974135;28;20060;-57
2021/01/08 04:59:19;;;;;;;16.10;7.18;;;1.70;99.90;;;;;;4973575;28;20368;-58
2021/01/08 05:01:45;;;;;;;17.60;7.30;;;1.70;99.90;;;;;;4982479;28;20039;-57
2021/01/08 05:04:11;;;;;;;17.67;6.60;;;1.70;99.90;;;;;;4993477;28;20081;-54
2021/01/08 05:06:38;;;;;;;14.02;6.93;;;1.70;99.90;;;;;;4992291;28;20034;-57
2021/01/08 05:09:03;;;;;;;15.10;6.43;;;1.70;99.90;;;;;;4992581;28;20070;-53
2021/01/08 05:11:31;;;;;;;14.32;7.05;;;1.70;99.90;;;;;;4993622;28;20035;-56
2021/01/08 05:14:07;;;;;;;15.85;7.63;;;1.70;99.90;;;;;;4993857;28;20026;-59
2021/01/08 05:16:33;;;;;;;21.27;7.88;;;1.70;99.90;;;;;;4993491;28;20033;-59
2021/01/08 05:19:03;;;;;;;16.02;7.00;;;1.80;99.90;;;;;;4993313;28;20031;-57
2021/01/08 05:21:31;;;;;;;17.75;6.78;;;1.80;99.90;;;;;;4993716;28;20037;-58
2021/01/08 05:24:00;;;;;;;14.10;6.47;;;1.80;99.90;;;;;;4993572;28;20033;-58
2021/01/08 05:26:29;;;;;;;15.55;6.43;;;1.80;99.90;;;;;;4992016;28;20035;-57
2021/01/08 05:28:58;;;;;;;16.50;6.63;;;1.80;99.90;;;;;;4992999;28;20042;-59
2021/01/08 05:31:31;;;;;;;17.40;8.10;;;1.80;99.90;;;;;;4993191;28;20030;-60
2021/01/08 05:33:57;;;;;;;12.70;6.10;;;1.80;99.90;;;;;;4993034;28;20038;-60
2021/01/08 05:36:25;;;;;;;15.38;6.75;;;1.70;99.90;;;;;;4993174;28;20044;-59
2021/01/08 05:39:00;;;;;;;16.30;6.63;;;1.80;99.90;;;;;;4992861;28;20077;-59
2021/01/08 05:41:32;;;;;;;19.75;7.65;;;1.90;99.90;;;;;;4992453;28;20029;-59
2021/01/08 05:44:01;;;;;;;16.20;7.28;;;1.90;99.90;;;;;;4992956;28;20108;-59
2021/01/08 05:46:35;;;;;;;16.30;6.88;;;1.80;99.90;;;;;;4992979;28;20034;-58
2021/01/08 05:49:04;;;;;;;15.20;7.60;;;1.90;99.90;;;;;;4993159;28;20158;-57
2021/01/08 05:51:39;;;;;;;14.15;6.57;;;1.90;99.90;;;;;;4993004;28;20080;-58
2021/01/08 05:54:06;;;;;;;16.58;6.88;;;1.90;99.90;;;;;;4992879;28;20026;-59
2021/01/08 05:56:34;;;;;;;15.57;7.18;;;1.80;99.90;;;;;;4992740;28;20042;-58
2021/01/08 05:59:04;;;;;;;16.80;6.65;;;1.80;99.90;;;;;;4992995;28;20045;-59
2021/01/08 06:01:32;;;;;;;13.70;6.88;;;1.80;99.90;;;;;;4992945;28;20038;-60
2021/01/08 06:04:00;;;;;;;14.70;6.53;;;1.80;99.90;;;;;;4992934;28;20284;-59
2021/01/08 06:06:42;;;;;;;13.77;6.15;;;1.80;99.90;;;;;;4992703;28;20030;-58
2021/01/08 06:09:15;;;;;;;13.00;5.78;;;1.80;99.90;;;;;;4992858;28;20161;-57
2021/01/08 06:11:46;;;;;;;11.80;6.00;;;1.80;99.90;;;;;;4992426;28;20038;-58
2021/01/08 06:14:16;;;;;;;19.60;6.53;;;1.80;99.90;;;;;;4992757;28;20092;-58
2021/01/08 06:16:47;;;;;;;19.58;8.23;;;1.90;99.90;;;;;;4992674;28;20041;-58
2021/01/08 06:19:15;;;;;;;14.38;6.70;;;1.80;99.90;;;;;;4991178;28;20046;-59
2021/01/08 06:21:44;;;;;;;11.90;5.90;;;1.80;99.90;;;;;;4992677;28;20038;-56
2021/01/08 06:24:23;;;;;;;12.73;6.45;;;1.80;99.90;;;;;;4992538;28;20038;-56
2021/01/08 06:26:50;;;;;;;16.77;5.78;;;1.80;99.90;;;;;;4991157;28;20042;-54
2021/01/08 06:29:19;;;;;;;19.95;7.07;;;1.80;99.90;;;;;;4992095;28;20070;-56
2021/01/08 06:31:54;;;;;;;16.58;7.32;;;1.90;99.90;;;;;;4992445;28;20113;-56
2021/01/08 06:34:29;;;;;;;13.70;7.18;;;1.80;99.90;;;;;;4992547;28;20045;-57
2021/01/08 06:37:11;;;;;;;15.60;6.97;;;1.90;99.90;;;;;;4992316;28;20026;-57
2021/01/08 06:39:40;;;;;;;15.60;7.25;;;1.90;99.90;;;;;;4992274;28;20037;-56
2021/01/08 06:42:07;;;;;;;14.40;6.75;;;1.80;99.90;;;;;;4992006;28;20041;-56
2021/01/08 06:44:44;;;;;;;16.52;7.00;;;1.80;99.90;;;;;;4992043;28;20037;-57
2021/01/08 06:47:15;;;;;;;16.27;6.53;;;1.70;99.90;;;;;;4992429;28;20117;-55
2021/01/08 06:49:49;;;;;;;14.45;6.68;;;1.80;99.90;;;;;;4974978;28;20162;-55
2021/01/08 06:52:16;;;;;;;17.42;7.03;;;1.70;99.90;;;;;;4992710;28;20038;-56
2021/01/08 06:54:43;;;;;;;15.32;7.03;;;1.80;99.90;;;;;;4996175;28;20045;-57
2021/01/08 06:57:33;;;;;;;15.35;6.75;;;1.80;99.90;;;;;;4995646;28;20073;-54
2021/01/08 07:00:05;;;;;;;15.52;6.65;;;1.70;99.90;;;;;;4993785;28;20038;-56
2021/01/08 07:02:33;;;;;;;17.23;7.10;;;1.70;99.90;;;;;;4994345;28;20033;-57
2021/01/08 07:05:00;;;;;;;20.02;7.53;;;1.60;99.90;;;;;;4993841;28;20034;-56
2021/01/08 07:07:30;;;;;;;17.02;7.70;;;1.70;99.90;;;;;;4995295;28;20034;-57
2021/01/08 07:09:56;;;;;;;14.75;7.22;;;1.60;99.90;;;;;;4995361;28;20073;-57
2021/01/08 07:12:24;;;;;;;15.65;6.95;;;1.60;99.90;;;;;;4995304;28;20037;-56
2021/01/08 07:14:51;;;;;;;15.95;6.70;;;1.60;99.90;;;;;;4995786;28;20030;-56
2021/01/08 07:17:29;;;;;;;16.13;7.60;;;1.60;99.90;;;;;;4995475;28;20031;-57
2021/01/08 07:19:55;;;;;;;15.05;7.20;;;1.60;99.90;;;;;;4995564;28;20038;-56
2021/01/08 07:22:22;;;;;;;22.85;8.07;;;1.60;99.90;;;;;;4995666;28;20041;-56
2021/01/08 07:24:50;;;;;;;18.73;8.75;;;1.50;99.90;;;;;;4995276;28;20034;-57
2021/01/08 07:27:25;;;;;;;17.35;7.80;;;1.50;99.90;;;;;;4995347;28;20065;-58
2021/01/08 07:29:57;;;;;;;17.67;7.90;;;1.50;99.90;;;;;;4994499;28;20108;-55
2021/01/08 07:32:52;;;;;;;15.82;6.78;;;1.50;99.90;;;;;;4995258;28;20039;-57
2021/01/08 07:35:32;;;;;;;15.45;7.88;;;1.50;99.90;;;;;;4995432;28;20039;-57
2021/01/08 07:38:08;;;;;;;16.15;7.50;;;1.50;99.90;;;;;;4995180;28;20030;-58
2021/01/08 07:40:36;;;;;;;15.65;7.93;;;1.50;99.90;;;;;;4995065;28;20041;-57
2021/01/08 07:43:11;;;;;;;19.23;8.00;;;1.50;99.90;;;;;;4995366;28;20042;-55
2021/01/08 07:45:52;;;;;;;19.25;8.48;;;1.40;99.90;;;;;;4995441;28;20034;-57
2021/01/08 07:48:30;;;;;;;18.10;7.00;;;1.40;99.90;;;;;;4995030;28;20042;-56
2021/01/08 07:51:03;;;;;;;17.55;7.63;;;1.40;99.90;;;;;;4995360;28;20114;-56
2021/01/08 07:53:43;;;;;;;16.98;7.05;;;1.40;99.90;;;;;;4994824;28;20034;-58
2021/01/08 07:56:22;;;;;;;15.07;7.50;;;1.40;99.90;;;;;;4995218;28;20031;-55
2021/01/08 07:59:09;;;;;;;18.25;7.75;;;1.50;99.90;;;;;;4993898;28;20298;-58
2021/01/08 08:01:36;;;;;;;14.73;7.05;;;1.50;99.90;;;;;;4994725;28;20084;-58
2021/01/08 08:04:08;;;;;;;17.33;7.80;;;1.50;99.90;;;;;;4994301;28;20065;-56
2021/01/08 08:06:41;;;;;;;17.30;7.80;;;1.50;99.90;;;;;;4994425;28;20030;-60
2021/01/08 08:09:14;;;;;;;19.88;7.97;;;1.50;99.90;;;;;;4993670;28;20027;-61
2021/01/08 08:11:39;;;;;;;16.30;7.47;;;1.60;99.90;;;;;;4994406;28;20026;-57
2021/01/08 08:14:12;;;;;;;16.77;7.20;;;1.50;99.90;;;;;;4994738;28;20026;-49
2021/01/08 08:16:40;;;;;;;21.42;8.75;;;1.60;99.90;;;;;;4994378;28;20061;-60
2021/01/08 08:19:08;;;;;;;17.65;8.18;;;1.60;99.90;;;;;;4994600;28;20033;-56
2021/01/08 08:21:36;;;;;;;22.92;9.35;;;1.60;99.90;;;;;;4994484;28;20066;-60
2021/01/08 08:24:05;;;;;;;21.15;9.20;;;1.60;99.90;;;;;;4993355;28;20026;-59
2021/01/08 08:26:34;;;;;;;20.30;8.88;;;1.60;99.90;;;;;;4974539;28;20035;-58
2021/01/08 08:29:06;;;;;;;19.55;8.38;;;1.60;99.90;;;;;;4974095;28;20130;-59
2021/01/08 08:31:36;;;;;;;16.55;7.95;;;1.70;99.90;;;;;;4974571;28;20027;-58
2021/01/08 08:34:03;;;;;;;18.70;8.65;;;1.70;99.90;;;;;;4974708;28;20052;-57
2021/01/08 08:36:31;;;;;;;20.00;9.38;;;1.70;99.90;;;;;;4974496;28;20035;-58
2021/01/08 08:39:13;;;;;;;18.27;8.60;;;1.80;99.90;;;;;;4974491;28;20038;-55
2021/01/08 08:41:44;;;;;;;16.77;8.27;;;1.70;99.90;;;;;;4974743;28;20027;-54
2021/01/08 08:44:17;;;;;;;17.87;8.77;;;1.70;99.90;;;;;;4973375;28;20031;-58
2021/01/08 08:46:51;;;;;;;17.77;7.85;;;1.80;99.90;;;;;;4973145;28;20087;-59
2021/01/08 08:49:22;;;;;;;19.77;7.55;;;1.90;99.90;;;;;;4983456;28;20034;-59
2021/01/08 08:51:50;;;;;;;16.70;8.18;;;1.90;99.90;;;;;;4993734;28;20033;-58
2021/01/08 08:54:18;;;;;;;19.13;7.47;;;1.90;99.90;;;;;;4993495;28;20093;-59
2021/01/08 08:56:55;;;;;;;18.60;8.13;;;1.90;99.90;;;;;;4993489;28;20390;-53
2021/01/08 08:59:44;;;;;;;13.50;6.75;;;1.90;99.90;;;;;;4993757;28;20026;-57
2021/01/08 09:02:20;;;;;;;14.20;7.30;;;1.80;99.90;;;;;;4993455;28;20041;-59
2021/01/08 09:05:02;;;;;;;12.35;6.75;;;1.90;99.90;;;;;;4993553;28;20058;-58
2021/01/08 09:07:55;;;;;;;14.63;6.30;;;1.80;99.90;;;;;;4993693;28;20034;-59
2021/01/08 09:10:57;;;;;;;10.50;5.50;;;1.90;99.90;;;;;;4993571;28;20031;-60
2021/01/08 09:13:55;;;;;;;13.15;6.95;;;1.90;99.90;;;;;;4992772;28;20118;-60
2021/01/08 09:16:52;;;;;;;11.20;5.88;;;1.90;99.90;;;;;;4991543;28;20054;-60
2021/01/08 09:19:53;;;;;;;15.25;5.95;;;1.70;99.90;;;;;;4992044;28;20034;-59
2021/01/08 09:22:19;;;;;;;12.18;6.07;;;1.90;99.90;;;;;;4992166;28;20041;-60
2021/01/08 09:24:50;;;;;;;15.90;6.30;;;1.80;99.90;;;;;;4992249;28;20041;-60
2021/01/08 09:27:16;;;;;;;11.20;5.90;;;1.80;99.90;;;;;;4991691;28;20034;-59
2021/01/08 09:29:43;;;;;;;10.80;6.25;;;1.90;99.90;;;;;;4992174;28;20038;-58
2021/01/08 09:32:09;;;;;;;12.90;7.13;;;1.90;99.90;;;;;;4992985;28;20034;-59
2021/01/08 09:34:37;;;;;;;12.65;6.90;;;1.70;99.90;;;;;;4992977;28;20057;-60
2021/01/08 09:37:16;;;;;;;11.63;5.97;;;1.70;99.90;;;;;;4992984;28;20030;-60
2021/01/08 09:39:44;;;;;;;12.23;6.25;;;1.80;99.90;;;;;;4992726;28;20039;-58
2021/01/08 09:42:11;;;;;;;14.98;7.97;;;1.70;99.90;;;;;;4992412;28;20031;-59
2021/01/08 09:44:41;;;;;;;15.00;7.40;;;1.60;99.90;;;;;;4992998;28;20034;-60
2021/01/08 09:47:09;;;;;;;14.27;7.72;;;1.80;99.90;;;;;;4992955;28;20126;-59
2021/01/08 09:49:52;;;;;;;15.50;8.48;;;1.80;99.90;;;;;;4991323;28;20092;-59
2021/01/08 09:52:28;;;;;;;18.23;9.18;;;1.70;99.90;;;;;;4991619;28;20039;-59
2021/01/08 09:54:54;;;;;;;16.35;8.10;;;1.80;99.90;;;;;;4992789;28;20045;-60
2021/01/08 09:57:35;;;;;;;17.42;7.55;;;1.80;99.90;;;;;;4992540;28;20085;-60
2021/01/08 10:00:11;;;;;;;13.70;7.53;;;1.80;99.90;;;;;;4992827;28;20045;-60
2021/01/08 10:02:41;;;;;;;15.00;6.78;;;1.80;99.90;;;;;;4992811;28;20368;-58
2021/01/08 10:05:23;;;;;;;14.30;7.22;;;1.80;99.90;;;;;;4993247;28;20113;-60
2021/01/08 10:07:50;;;;;;;14.45;7.45;;;1.80;99.90;;;;;;4992578;28;20121;-59
2021/01/08 10:10:38;;;;;;;15.18;6.53;;;1.70;99.90;;;;;;4992517;28;20023;-59
2021/01/08 10:13:07;;;;;;;27.63;10.73;;;1.80;99.90;;;;;;4992609;28;20030;-59
2021/01/08 10:15:37;;;;;;;15.88;7.55;;;1.80;99.90;;;;;;4992194;28;20045;-60
2021/01/08 10:18:12;;;;;;;17.80;7.50;;;1.80;99.90;;;;;;4992547;28;20093;-58
2021/01/08 10:20:45;;;;;;;16.92;7.53;;;1.70;99.90;;;;;;4992471;28;20042;-59
2021/01/08 10:23:13;;;;;;;15.13;7.55;;;1.70;99.90;;;;;;4992820;28;20126;-59
2021/01/08 10:25:40;;;;;;;20.48;7.22;;;1.80;99.90;;;;;;4992756;28;20042;-59
2021/01/08 10:28:31;;;;;;;14.60;7.60;;;1.80;99.90;;;;;;4996358;28;20046;-60
2021/01/08 10:30:58;;;;;;;16.95;7.57;;;1.80;99.90;;;;;;4996456;28;20033;-59
2021/01/08 10:33:24;;;;;;;20.95;9.57;;;1.80;99.90;;;;;;4996583;28;20109;-60
2021/01/08 10:35:55;;;;;;;22.25;10.63;;;1.80;99.90;;;;;;4996324;28;20026;-59
2021/01/08 10:38:22;;;;;;;30.27;14.52;;;1.80;99.90;;;;;;4996070;28;20038;-59
2021/01/08 10:40:49;;;;;;;27.10;13.98;;;1.80;99.90;;;;;;4996087;28;20117;-59
2021/01/08 10:43:16;;;;;;;34.35;14.40;;;1.80;99.90;;;;;;4996131;28;20030;-61
2021/01/08 10:45:41;;;;;;;24.38;12.75;;;1.80;99.90;;;;;;4996130;28;20030;-60
2021/01/08 10:48:08;;;;;;;29.65;13.93;;;1.80;99.90;;;;;;4995983;28;20096;-60
2021/01/08 10:50:34;;;;;;;29.70;14.55;;;1.70;99.90;;;;;;4995986;28;20042;-60
2021/01/08 10:53:01;;;;;;;23.88;12.20;;;1.70;99.90;;;;;;4996009;28;20038;-59
2021/01/08 10:55:27;;;;;;;35.88;15.65;;;1.60;99.90;;;;;;4996054;28;20081;-59
2021/01/08 10:57:55;;;;;;;24.42;11.85;;;1.60;99.90;;;;;;4995825;28;20101;-60
2021/01/08 11:00:22;;;;;;;30.33;11.75;;;1.60;99.90;;;;;;4995929;28;20065;-59
2021/01/08 11:02:48;;;;;;;26.05;12.20;;;1.60;99.90;;;;;;4995704;28;20041;-59
2021/01/08 11:05:14;;;;;;;27.35;11.32;;;1.60;99.90;;;;;;4996081;28;20018;-59
2021/01/08 11:07:40;;;;;;;23.73;11.35;;;1.70;99.90;;;;;;4995527;28;20030;-58
2021/01/08 11:10:07;;;;;;;26.00;12.73;;;1.60;99.90;;;;;;4996057;28;20037;-55
2021/01/08 11:12:34;;;;;;;22.52;10.82;;;1.70;99.90;;;;;;4995683;28;20035;-58
2021/01/08 11:15:02;;;;;;;24.80;11.00;;;1.70;99.90;;;;;;4995924;28;20066;-55
2021/01/08 11:17:28;;;;;;;27.83;11.77;;;1.70;99.90;;;;;;4995697;28;20121;-56
2021/01/08 11:19:54;;;;;;;22.00;10.60;;;1.70;99.90;;;;;;4995556;28;20173;-57
2021/01/08 11:22:20;;;;;;;23.02;10.93;;;1.70;99.90;;;;;;4995528;28;20061;-57
2021/01/08 11:24:47;;;;;;;22.60;11.25;;;1.80;99.90;;;;;;4995333;28;20034;-59
2021/01/08 11:27:13;;;;;;;27.55;11.85;;;1.70;99.90;;;;;;4995264;28;20026;-62
2021/01/08 11:29:39;;;;;;;25.25;11.73;;;1.70;99.90;;;;;;4995001;28;20082;-59
2021/01/08 11:32:11;;;;;;;15.90;7.45;;;1.80;99.90;;;;;;4995540;28;20034;-59
2021/01/08 11:34:40;;;;;;;22.80;9.32;;;1.90;99.90;;;;;;4995154;28;20116;-59
2021/01/08 11:37:08;;;;;;;17.92;8.80;;;1.90;99.90;;;;;;4995060;28;20125;-61
2021/01/08 11:39:34;;;;;;;17.20;8.60;;;1.80;99.90;;;;;;4994495;28;20037;-59
2021/01/08 11:41:59;;;;;;;20.45;8.20;;;1.80;99.90;;;;;;4994914;28;20038;-60
2021/01/08 11:44:26;;;;;;;18.65;8.70;;;1.90;99.90;;;;;;4995015;28;20030;-57
2021/01/08 11:46:52;;;;;;;18.85;8.63;;;1.80;99.90;;;;;;4994889;28;20041;-58
2021/01/08 11:49:19;;;;;;;17.40;8.60;;;1.80;99.90;;;;;;4995078;28;20046;-58
2021/01/08 11:51:46;;;;;;;18.23;9.15;;;1.90;99.90;;;;;;4994913;28;20097;-57
2021/01/08 11:54:12;;;;;;;17.85;9.07;;;1.80;99.90;;;;;;4994778;28;20039;-58
2021/01/08 11:56:38;;;;;;;20.20;9.48;;;1.90;99.90;;;;;;4994730;28;20052;-57
2021/01/08 11:59:04;;;;;;;21.60;9.75;;;1.90;99.90;;;;;;4994893;28;20145;-58
2021/01/08 12:01:31;;;;;;;20.55;10.23;;;1.90;99.90;;;;;;4994315;28;20030;-58
2021/01/08 12:03:59;;;;;;;18.42;8.82;;;1.90;99.90;;;;;;4994876;28;20034;-57
2021/01/08 12:06:31;;;;;;;16.80;8.15;;;2.00;99.90;;;;;;5009957;28;20122;-58
2021/01/08 12:08:58;;;;;;;18.08;8.50;;;2.00;99.90;;;;;;4994775;28;20038;-58
2021/01/08 12:11:25;;;;;;;18.50;9.10;;;2.00;99.90;;;;;;4994808;28;20030;-57
2021/01/08 12:13:52;;;;;;;16.05;7.85;;;2.10;99.90;;;;;;4994830;28;20041;-58
2021/01/08 12:16:32;;;;;;;13.38;6.47;;;2.20;99.90;;;;;;4994527;28;20129;-57
2021/01/08 12:18:58;;;;;;;14.40;8.35;;;2.20;99.90;;;;;;4994836;28;20114;-58
2021/01/08 12:21:25;;;;;;;19.02;8.23;;;2.20;99.90;;;;;;4994434;28;20034;-57
2021/01/08 12:23:52;;;;;;;17.27;8.57;;;2.20;99.90;;;;;;4994331;28;20109;-58
2021/01/08 12:26:20;;;;;;;18.08;8.10;;;2.10;99.90;;;;;;4994339;28;20034;-58
2021/01/08 12:28:48;;;;;;;19.55;10.02;;;2.10;99.90;;;;;;4994035;28;20049;-56
2021/01/08 12:31:14;;;;;;;19.08;9.23;;;2.10;99.90;;;;;;4994351;28;20031;-57
2021/01/08 12:33:43;;;;;;;22.50;10.00;;;2.10;99.90;;;;;;4994464;28;20030;-57
2021/01/08 12:36:09;;;;;;;13.18;6.68;;;2.10;99.90;;;;;;4994220;28;20065;-57
2021/01/08 12:38:35;;;;;;;28.80;7.70;;;2.10;99.90;;;;;;4993922;28;20035;-58
2021/01/08 12:41:02;;;;;;;17.77;8.02;;;2.10;99.90;;;;;;4994128;28;20092;-57
2021/01/08 12:43:28;;;;;;;17.77;8.45;;;2.10;99.90;;;;;;4994045;28;20026;-57
2021/01/08 12:45:54;;;;;;;20.80;9.05;;;2.10;99.90;;;;;;4993875;28;20034;-57
2021/01/08 12:48:20;;;;;;;16.08;8.48;;;2.00;99.90;;;;;;4993920;28;20102;-57
2021/01/08 12:50:46;;;;;;;19.55;8.88;;;2.00;99.90;;;;;;4992854;28;20023;-58
2021/01/08 12:53:12;;;;;;;16.88;8.82;;;2.10;99.90;;;;;;4994011;28;20112;-57
2021/01/08 12:55:38;;;;;;;20.85;9.57;;;2.00;99.90;;;;;;4993821;28;20023;-57
2021/01/08 12:58:04;;;;;;;18.05;8.82;;;2.00;99.90;;;;;;4994165;28;20383;-58